Home   Weather   Spain   Sevilla   Past weeks
Flag for Spain

Past Weather in Sevilla, Spain — Yesterday and Last 2 Weeks

Currently: 54 °F. Clear. (Weather station: Sevilla / San Pablo, Spain). See more current weather

Past Weather in Sevilla — Graph

°F

Sevilla Temperature Yesterday

Maximum temperature yesterday: 66 °F (at 2:30 pm)
Minimum temperature yesterday: 46 °F (at 12:00 am)
Average temperature yesterday: 55 °F

High & Low Weather Summary for the Past Weeks

 TemperatureHumidityPressure
High66 °F (Jan 28, 2:30 pm)93% (Jan 15, 2:30 am)30.51 "Hg (Jan 15, 2:30 am)
Low36 °F (Jan 20, 5:30 am)35% (Jan 28, 3:30 pm)30.12 "Hg (Jan 23, 5:30 pm)
Average51 °F67%30.30 "Hg
* Reported Jan 14 4:00 am — Jan 29 4:30 am, Sevilla. Weather by CustomWeather, © 2022

Note: Actual official high and low records may vary slightly from our data, if they occured in-between our weather recording intervals... More about our weather records

Sevilla Weather History for the Previous 24 Hours

Scroll right to see more
 ConditionsComfort  
Time TempWeatherWind HumidityBarometerVisibility
4:30 am
Sat, Jan 29
50 °FClear.12 mph62%30.33 "Hg10 mi
4:00 am50 °FClear.13 mph67%30.36 "Hg10 mi
3:30 am50 °FClear.14 mph67%30.33 "Hg10 mi
3:00 am52 °FClear.14 mph67%30.33 "Hg10 mi
2:30 am50 °FClear.9 mph76%30.33 "Hg10 mi
2:00 am52 °FClear.10 mph72%30.33 "Hg10 mi
1:30 am52 °FClear.10 mph72%30.36 "Hg10 mi
12:30 am48 °FClear.8 mph71%30.33 "Hg10 mi
12:00 am48 °FClear.9 mph71%30.33 "Hg10 mi
11:30 pm
Fri, Jan 28
48 °FClear.6 mph71%30.33 "Hg10 mi
11:00 pm50 °FClear.5 mph62%30.33 "Hg10 mi
10:30 pm50 °FClear.6 mph62%30.33 "Hg10 mi
10:00 pm52 °FClear.5 mph54%30.33 "Hg10 mi
9:30 pm54 °FClear.7 mph54%30.33 "Hg10 mi
9:00 pm55 °FClear.10 mph51%30.33 "Hg10 mi
8:30 pm57 °FPassing clouds.8 mph44%30.33 "HgN/A
8:00 pm59 °FClear.8 mph42%30.30 "Hg10 mi
7:30 pm59 °FClear.9 mph42%30.30 "Hg10 mi
7:00 pm61 °FClear.12 mph39%30.30 "Hg10 mi
6:30 pm63 °FPassing clouds.14 mph37%30.27 "HgN/A
6:00 pm64 °FPassing clouds.13 mph37%30.27 "HgN/A
5:30 pm66 °FPassing clouds.14 mph35%30.27 "HgN/A
5:00 pm66 °FSunny.16 mph35%30.27 "Hg10 mi
4:30 pm66 °FPassing clouds.17 mph37%30.27 "HgN/A
4:00 pm66 °FPassing clouds.18 mph37%30.27 "HgN/A
3:30 pm66 °FPassing clouds.16 mph35%30.27 "HgN/A
3:00 pm66 °FPassing clouds.15 mph37%30.27 "HgN/A
2:30 pm66 °FSunny.17 mph37%30.27 "Hg10 mi
2:00 pm64 °FPassing clouds.14 mph40%30.30 "HgN/A
1:30 pm64 °FSunny.15 mph40%30.30 "Hg10 mi
12:30 pm61 °FSunny.13 mph45%30.33 "Hg10 mi
12:00 pm59 °FSunny.15 mph48%30.33 "Hg10 mi
11:30 am57 °FSunny.13 mph48%30.33 "Hg10 mi
11:00 am55 °FPassing clouds.14 mph51%30.33 "HgN/A
10:30 am54 °FSunny.14 mph54%30.30 "Hg10 mi
10:00 am52 °FSunny.14 mph54%30.30 "Hg10 mi
9:30 am50 °FSunny.14 mph62%30.30 "Hg10 mi
9:00 am50 °FSunny.15 mph58%30.30 "Hg10 mi
8:30 am48 °FSunny.15 mph62%30.30 "Hg10 mi
8:00 am50 °FClear.14 mph58%30.30 "Hg10 mi
7:30 am50 °FClear.12 mph58%30.27 "Hg10 mi
7:00 am50 °FClear.14 mph58%30.27 "Hg10 mi
6:30 am48 °FClear.10 mph66%30.27 "Hg10 mi
6:00 am50 °FClear.13 mph62%30.27 "Hg10 mi
5:30 am48 °FClear.10 mph71%30.27 "Hg10 mi
5:00 am48 °FClear.10 mph76%30.27 "Hg10 mi
Weather by CustomWeather, © 2022

See weather overview